sensor_id;sensor_type;location;lat;lon;timestamp;pressure;altitude;pressure_sealevel;temperature;humidity
8075;BME280;4080;42.676;23.372;2023-04-23T00:01:11;95063.84;;;9.75;100.00
8075;BME280;4080;42.676;23.372;2023-04-23T00:03:40;95064.09;;;9.73;100.00
8075;BME280;4080;42.676;23.372;2023-04-23T00:06:08;95065.94;;;9.68;100.00
8075;BME280;4080;42.676;23.372;2023-04-23T00:08:38;95062.78;;;9.60;100.00
8075;BME280;4080;42.676;23.372;2023-04-23T00:11:05;95057.47;;;9.50;100.00
8075;BME280;4080;42.676;23.372;2023-04-23T00:13:32;95064.34;;;9.51;100.00
8075;BME280;4080;42.676;23.372;2023-04-23T00:16:00;95061.69;;;9.51;100.00
8075;BME280;4080;42.676;23.372;2023-04-23T00:18:27;95024.25;;;9.29;100.00
8075;BME280;4080;42.676;23.372;2023-04-23T00:20:55;95048.78;;;9.50;100.00
8075;BME280;4080;42.676;23.372;2023-04-23T00:23:22;95069.09;;;9.59;100.00
8075;BME280;4080;42.676;23.372;2023-04-23T00:25:49;95064.34;;;9.61;100.00
8075;BME280;4080;42.676;23.372;2023-04-23T00:28:16;95059.09;;;9.61;100.00
8075;BME280;4080;42.676;23.372;2023-04-23T00:30:43;95066.19;;;9.61;100.00
8075;BME280;4080;42.676;23.372;2023-04-23T00:33:09;95070.13;;;9.58;100.00
8075;BME280;4080;42.676;23.372;2023-04-23T00:35:36;95064.59;;;9.55;100.00
8075;BME280;4080;42.676;23.372;2023-04-23T00:38:04;95059.59;;;9.53;100.00
8075;BME280;4080;42.676;23.372;2023-04-23T00:40:31;95053.81;;;9.51;100.00
8075;BME280;4080;42.676;23.372;2023-04-23T00:42:58;95062.50;;;9.52;100.00
8075;BME280;4080;42.676;23.372;2023-04-23T00:45:25;95054.84;;;9.50;100.00
8075;BME280;4080;42.676;23.372;2023-04-23T00:47:52;95056.69;;;9.50;100.00
8075;BME280;4080;42.676;23.372;2023-04-23T00:50:19;95058.53;;;9.49;100.00
8075;BME280;4080;42.676;23.372;2023-04-23T00:52:46;95051.13;;;9.46;100.00
8075;BME280;4080;42.676;23.372;2023-04-23T00:55:14;95051.91;;;9.47;100.00
8075;BME280;4080;42.676;23.372;2023-04-23T00:57:41;95051.13;;;9.41;100.00
8075;BME280;4080;42.676;23.372;2023-04-23T01:00:08;95050.06;;;9.37;100.00
8075;BME280;4080;42.676;23.372;2023-04-23T01:02:38;95057.94;;;9.27;100.00
8075;BME280;4080;42.676;23.372;2023-04-23T01:05:06;95053.13;;;9.14;100.00
8075;BME280;4080;42.676;23.372;2023-04-23T01:07:35;95062.56;;;9.10;100.00
8075;BME280;4080;42.676;23.372;2023-04-23T01:10:03;95048.34;;;9.00;100.00
8075;BME280;4080;42.676;23.372;2023-04-23T01:12:32;95066.78;;;9.06;100.00
8075;BME280;4080;42.676;23.372;2023-04-23T01:14:59;95058.84;;;9.00;100.00
8075;BME280;4080;42.676;23.372;2023-04-23T01:17:26;95056.75;;;8.97;100.00
8075;BME280;4080;42.676;23.372;2023-04-23T01:19:52;95054.34;;;8.91;100.00
8075;BME280;4080;42.676;23.372;2023-04-23T01:22:20;95053.50;;;8.85;100.00
8075;BME280;4080;42.676;23.372;2023-04-23T01:24:47;95048.75;;;8.82;100.00
8075;BME280;4080;42.676;23.372;2023-04-23T01:27:14;95055.56;;;8.73;100.00
8075;BME280;4080;42.676;23.372;2023-04-23T01:29:43;95050.00;;;8.64;100.00
8075;BME280;4080;42.676;23.372;2023-04-23T01:32:11;95048.06;;;8.55;100.00
8075;BME280;4080;42.676;23.372;2023-04-23T01:34:38;95048.84;;;8.50;100.00
8075;BME280;4080;42.676;23.372;2023-04-23T01:37:05;95055.13;;;8.49;100.00
8075;BME280;4080;42.676;23.372;2023-04-23T01:39:34;95059.34;;;8.50;100.00
8075;BME280;4080;42.676;23.372;2023-04-23T01:42:01;95041.72;;;8.46;100.00
8075;BME280;4080;42.676;23.372;2023-04-23T01:44:28;95062.75;;;8.51;100.00
8075;BME280;4080;42.676;23.372;2023-04-23T01:46:55;95061.44;;;8.48;100.00
8075;BME280;4080;42.676;23.372;2023-04-23T01:49:22;95069.53;;;8.42;100.00
8075;BME280;4080;42.676;23.372;2023-04-23T01:51:49;95071.09;;;8.37;100.00
8075;BME280;4080;42.676;23.372;2023-04-23T01:54:16;95070.31;;;8.37;100.00
8075;BME280;4080;42.676;23.372;2023-04-23T01:56:44;95065.59;;;8.39;100.00
8075;BME280;4080;42.676;23.372;2023-04-23T01:59:10;95064.00;;;8.38;100.00
8075;BME280;4080;42.676;23.372;2023-04-23T02:01:41;95058.22;;;8.36;100.00
8075;BME280;4080;42.676;23.372;2023-04-23T02:04:11;95052.91;;;8.31;100.00
8075;BME280;4080;42.676;23.372;2023-04-23T02:06:38;95057.25;;;8.20;100.00
8075;BME280;4080;42.676;23.372;2023-04-23T02:09:05;95062.97;;;8.12;100.00
8075;BME280;4080;42.676;23.372;2023-04-23T02:11:32;95053.69;;;7.99;100.00
8075;BME280;4080;42.676;23.372;2023-04-23T02:14:00;95060.31;;;8.07;100.00
8075;BME280;4080;42.676;23.372;2023-04-23T02:16:27;95068.66;;;7.99;100.00
8075;BME280;4080;42.676;23.372;2023-04-23T02:18:55;95051.16;;;7.83;100.00
8075;BME280;4080;42.676;23.372;2023-04-23T02:21:23;95066.16;;;7.87;100.00
8075;BME280;4080;42.676;23.372;2023-04-23T02:23:50;95060.34;;;7.80;100.00
8075;BME280;4080;42.676;23.372;2023-04-23T02:26:17;95064.78;;;7.79;100.00
8075;BME280;4080;42.676;23.372;2023-04-23T02:28:44;95075.53;;;7.78;100.00
8075;BME280;4080;42.676;23.372;2023-04-23T02:31:12;95070.53;;;7.76;100.00
8075;BME280;4080;42.676;23.372;2023-04-23T02:33:40;95064.75;;;7.74;100.00
8075;BME280;4080;42.676;23.372;2023-04-23T02:36:07;95071.09;;;7.78;100.00
8075;BME280;4080;42.676;23.372;2023-04-23T02:38:35;95065.09;;;7.83;100.00
8075;BME280;4080;42.676;23.372;2023-04-23T02:41:01;95074.84;;;7.88;100.00
8075;BME280;4080;42.676;23.372;2023-04-23T02:43:28;95076.44;;;7.89;100.00
8075;BME280;4080;42.676;23.372;2023-04-23T02:45:55;95066.91;;;7.83;100.00
8075;BME280;4080;42.676;23.372;2023-04-23T02:48:23;95067.72;;;7.83;100.00
8075;BME280;4080;42.676;23.372;2023-04-23T02:50:51;95075.59;;;7.83;100.00
8075;BME280;4080;42.676;23.372;2023-04-23T02:53:18;95033.59;;;7.56;100.00
8075;BME280;4080;42.676;23.372;2023-04-23T02:55:45;95070.13;;;7.90;100.00
8075;BME280;4080;42.676;23.372;2023-04-23T02:58:11;95078.31;;;7.93;100.00
8075;BME280;4080;42.676;23.372;2023-04-23T03:00:38;95076.97;;;7.91;100.00
8075;BME280;4080;42.676;23.372;2023-04-23T03:03:05;95077.97;;;7.85;100.00
8075;BME280;4080;42.676;23.372;2023-04-23T03:05:33;95073.47;;;7.80;100.00
8075;BME280;4080;42.676;23.372;2023-04-23T03:08:00;95080.56;;;7.79;100.00
8075;BME280;4080;42.676;23.372;2023-04-23T03:10:26;95080.00;;;7.77;100.00
8075;BME280;4080;42.676;23.372;2023-04-23T03:12:53;95080.22;;;7.71;100.00
8075;BME280;4080;42.676;23.372;2023-04-23T03:15:21;95082.97;;;7.59;100.00
8075;BME280;4080;42.676;23.372;2023-04-23T03:17:47;95084.94;;;7.47;100.00
8075;BME280;4080;42.676;23.372;2023-04-23T03:20:15;95079.84;;;7.35;100.00
8075;BME280;4080;42.676;23.372;2023-04-23T03:22:43;95083.00;;;7.37;100.00
8075;BME280;4080;42.676;23.372;2023-04-23T03:25:10;95091.72;;;7.43;100.00
8075;BME280;4080;42.676;23.372;2023-04-23T03:27:37;95089.69;;;7.50;100.00
8075;BME280;4080;42.676;23.372;2023-04-23T03:30:05;95087.06;;;7.50;100.00
8075;BME280;4080;42.676;23.372;2023-04-23T03:32:33;95084.50;;;7.55;100.00
8075;BME280;4080;42.676;23.372;2023-04-23T03:35:00;95088.16;;;7.54;100.00
8075;BME280;4080;42.676;23.372;2023-04-23T03:37:26;95083.91;;;7.48;100.00
8075;BME280;4080;42.676;23.372;2023-04-23T03:39:55;95096.56;;;7.56;100.00
8075;BME280;4080;42.676;23.372;2023-04-23T03:42:22;95097.16;;;7.63;100.00
8075;BME280;4080;42.676;23.372;2023-04-23T03:44:49;95099.09;;;7.68;100.00
8075;BME280;4080;42.676;23.372;2023-04-23T03:47:15;95096.22;;;7.69;100.00
8075;BME280;4080;42.676;23.372;2023-04-23T03:49:43;95104.63;;;7.71;100.00
8075;BME280;4080;42.676;23.372;2023-04-23T03:52:09;95102.56;;;7.73;100.00
8075;BME280;4080;42.676;23.372;2023-04-23T03:54:36;95106.56;;;7.81;100.00
8075;BME280;4080;42.676;23.372;2023-04-23T03:57:04;95103.44;;;7.84;100.00
8075;BME280;4080;42.676;23.372;2023-04-23T03:59:31;95106.91;;;7.90;100.00
8075;BME280;4080;42.676;23.372;2023-04-23T04:01:58;95110.06;;;7.92;100.00
8075;BME280;4080;42.676;23.372;2023-04-23T04:04:25;95116.88;;;7.88;100.00
8075;BME280;4080;42.676;23.372;2023-04-23T04:06:52;95094.44;;;7.75;100.00
8075;BME280;4080;42.676;23.372;2023-04-23T04:09:19;95121.06;;;7.89;100.00
8075;BME280;4080;42.676;23.372;2023-04-23T04:11:46;95115.31;;;7.92;100.00
8075;BME280;4080;42.676;23.372;2023-04-23T04:14:14;95113.25;;;7.94;100.00
8075;BME280;4080;42.676;23.372;2023-04-23T04:16:41;95121.50;;;8.02;100.00
8075;BME280;4080;42.676;23.372;2023-04-23T04:19:07;95124.41;;;8.06;100.00
8075;BME280;4080;42.676;23.372;2023-04-23T04:21:34;95121.03;;;8.10;100.00
8075;BME280;4080;42.676;23.372;2023-04-23T04:24:01;95122.38;;;8.13;100.00
8075;BME280;4080;42.676;23.372;2023-04-23T04:26:29;95123.75;;;8.21;100.00
8075;BME280;4080;42.676;23.372;2023-04-23T04:28:56;95125.88;;;8.24;100.00
8075;BME280;4080;42.676;23.372;2023-04-23T04:31:25;95130.88;;;8.25;100.00
8075;BME280;4080;42.676;23.372;2023-04-23T04:33:52;95125.75;;;8.35;100.00
8075;BME280;4080;42.676;23.372;2023-04-23T04:36:19;95127.94;;;8.49;100.00
8075;BME280;4080;42.676;23.372;2023-04-23T04:38:47;95132.59;;;8.68;100.00
8075;BME280;4080;42.676;23.372;2023-04-23T04:41:15;95122.22;;;8.89;100.00
8075;BME280;4080;42.676;23.372;2023-04-23T04:43:42;95081.97;;;8.93;100.00
8075;BME280;4080;42.676;23.372;2023-04-23T04:46:09;95142.56;;;9.61;100.00
8075;BME280;4080;42.676;23.372;2023-04-23T04:48:37;95146.63;;;9.99;100.00
8075;BME280;4080;42.676;23.372;2023-04-23T04:51:04;95150.41;;;10.34;100.00
8075;BME280;4080;42.676;23.372;2023-04-23T04:53:31;95156.78;;;10.73;100.00
8075;BME280;4080;42.676;23.372;2023-04-23T04:56:00;95159.38;;;11.14;100.00
8075;BME280;4080;42.676;23.372;2023-04-23T04:58:26;95165.09;;;11.46;100.00
8075;BME280;4080;42.676;23.372;2023-04-23T05:00:54;95161.31;;;11.73;100.00
8075;BME280;4080;42.676;23.372;2023-04-23T05:03:20;95118.78;;;11.69;100.00
8075;BME280;4080;42.676;23.372;2023-04-23T05:05:48;95171.66;;;12.24;100.00
8075;BME280;4080;42.676;23.372;2023-04-23T05:08:15;95167.03;;;12.44;100.00
8075;BME280;4080;42.676;23.372;2023-04-23T05:10:43;95171.91;;;12.66;100.00
8075;BME280;4080;42.676;23.372;2023-04-23T05:13:10;95168.56;;;12.90;100.00
8075;BME280;4080;42.676;23.372;2023-04-23T05:15:37;95175.72;;;13.23;100.00
8075;BME280;4080;42.676;23.372;2023-04-23T05:18:04;95174.19;;;13.41;100.00
8075;BME280;4080;42.676;23.372;2023-04-23T05:20:32;95187.53;;;13.60;100.00
8075;BME280;4080;42.676;23.372;2023-04-23T05:23:00;95180.44;;;13.79;100.00
8075;BME280;4080;42.676;23.372;2023-04-23T05:25:28;95166.34;;;14.45;100.00
8075;BME280;4080;42.676;23.372;2023-04-23T05:27:55;95177.97;;;15.01;100.00
8075;BME280;4080;42.676;23.372;2023-04-23T05:30:22;95182.69;;;15.04;100.00
8075;BME280;4080;42.676;23.372;2023-04-23T05:32:49;95175.63;;;15.13;100.00
8075;BME280;4080;42.676;23.372;2023-04-23T05:35:15;95185.69;;;14.97;100.00
8075;BME280;4080;42.676;23.372;2023-04-23T05:37:42;95185.53;;;14.75;100.00
8075;BME280;4080;42.676;23.372;2023-04-23T05:40:11;95186.41;;;14.70;100.00
8075;BME280;4080;42.676;23.372;2023-04-23T05:42:37;95167.16;;;14.41;100.00
8075;BME280;4080;42.676;23.372;2023-04-23T05:45:05;95184.81;;;14.69;100.00
8075;BME280;4080;42.676;23.372;2023-04-23T05:47:32;95185.88;;;14.68;100.00
8075;BME280;4080;42.676;23.372;2023-04-23T05:49:59;95190.19;;;14.64;100.00
8075;BME280;4080;42.676;23.372;2023-04-23T05:52:26;95178.31;;;14.43;100.00
8075;BME280;4080;42.676;23.372;2023-04-23T05:54:55;95182.25;;;14.45;100.00
8075;BME280;4080;42.676;23.372;2023-04-23T05:57:23;95183.09;;;14.59;100.00
8075;BME280;4080;42.676;23.372;2023-04-23T05:59:50;95187.91;;;14.76;100.00
8075;BME280;4080;42.676;23.372;2023-04-23T06:02:17;95185.53;;;14.75;100.00
8075;BME280;4080;42.676;23.372;2023-04-23T06:04:44;95188.69;;;14.77;100.00
8075;BME280;4080;42.676;23.372;2023-04-23T06:07:10;95189.72;;;14.95;100.00
8075;BME280;4080;42.676;23.372;2023-04-23T06:09:39;95194.03;;;15.23;100.00
8075;BME280;4080;42.676;23.372;2023-04-23T06:12:06;95184.16;;;15.42;100.00
8075;BME280;4080;42.676;23.372;2023-04-23T06:14:34;95185.63;;;15.48;100.00
8075;BME280;4080;42.676;23.372;2023-04-23T06:17:01;95187.31;;;15.58;100.00
8075;BME280;4080;42.676;23.372;2023-04-23T06:19:28;95183.22;;;15.79;100.00
8075;BME280;4080;42.676;23.372;2023-04-23T06:21:54;95182.50;;;15.88;100.00
8075;BME280;4080;42.676;23.372;2023-04-23T06:24:21;95180.84;;;15.92;100.00
8075;BME280;4080;42.676;23.372;2023-04-23T06:26:48;95190.09;;;16.08;100.00
8075;BME280;4080;42.676;23.372;2023-04-23T06:29:15;95180.91;;;16.14;100.00
8075;BME280;4080;42.676;23.372;2023-04-23T06:31:43;95188.91;;;16.14;100.00
8075;BME280;4080;42.676;23.372;2023-04-23T06:34:09;95184.66;;;16.27;100.00
8075;BME280;4080;42.676;23.372;2023-04-23T06:36:36;95184.13;;;16.38;100.00
8075;BME280;4080;42.676;23.372;2023-04-23T06:39:07;95193.22;;;16.37;100.00
8075;BME280;4080;42.676;23.372;2023-04-23T06:41:34;95183.94;;;16.35;100.00
8075;BME280;4080;42.676;23.372;2023-04-23T06:44:01;95187.25;;;16.54;100.00
8075;BME280;4080;42.676;23.372;2023-04-23T06:46:28;95192.59;;;16.54;100.00
8075;BME280;4080;42.676;23.372;2023-04-23T06:48:56;95178.22;;;16.41;100.00
8075;BME280;4080;42.676;23.372;2023-04-23T06:51:24;95182.44;;;16.42;100.00
8075;BME280;4080;42.676;23.372;2023-04-23T06:53:51;95191.59;;;16.50;100.00
8075;BME280;4080;42.676;23.372;2023-04-23T06:56:17;95163.31;;;16.54;100.00
8075;BME280;4080;42.676;23.372;2023-04-23T06:58:44;95178.94;;;16.69;100.00
8075;BME280;4080;42.676;23.372;2023-04-23T07:01:11;95173.44;;;17.11;100.00
8075;BME280;4080;42.676;23.372;2023-04-23T07:03:38;95177.44;;;16.99;100.00
8075;BME280;4080;42.676;23.372;2023-04-23T07:06:09;95138.88;;;16.74;100.00
8075;BME280;4080;42.676;23.372;2023-04-23T07:08:36;95178.75;;;17.11;100.00
8075;BME280;4080;42.676;23.372;2023-04-23T07:11:04;95173.22;;;17.29;100.00
8075;BME280;4080;42.676;23.372;2023-04-23T07:13:31;95176.13;;;17.73;100.00
8075;BME280;4080;42.676;23.372;2023-04-23T07:15:58;95176.69;;;18.00;100.00
8075;BME280;4080;42.676;23.372;2023-04-23T07:18:24;95183.53;;;18.41;100.00
8075;BME280;4080;42.676;23.372;2023-04-23T07:20:51;95175.22;;;18.43;100.00
8075;BME280;4080;42.676;23.372;2023-04-23T07:23:19;95173.66;;;18.42;100.00
8075;BME280;4080;42.676;23.372;2023-04-23T07:25:46;95175.22;;;18.51;99.42
8075;BME280;4080;42.676;23.372;2023-04-23T07:28:13;95183.09;;;18.65;100.00
8075;BME280;4080;42.676;23.372;2023-04-23T07:30:39;95167.84;;;18.91;98.79
8075;BME280;4080;42.676;23.372;2023-04-23T07:33:06;95161.91;;;18.69;98.22
8075;BME280;4080;42.676;23.372;2023-04-23T07:35:33;95175.22;;;18.51;97.90
8075;BME280;4080;42.676;23.372;2023-04-23T07:38:00;95173.91;;;18.14;98.36
8075;BME280;4080;42.676;23.372;2023-04-23T07:40:28;95175.47;;;17.67;100.00
8075;BME280;4080;42.676;23.372;2023-04-23T07:42:54;95168.09;;;17.42;100.00
8075;BME280;4080;42.676;23.372;2023-04-23T07:45:23;95168.69;;;17.61;100.00
8075;BME280;4080;42.676;23.372;2023-04-23T07:47:50;95164.91;;;18.02;100.00
8075;BME280;4080;42.676;23.372;2023-04-23T07:50:17;95144.09;;;18.21;100.00
8075;BME280;4080;42.676;23.372;2023-04-23T07:52:45;95164.69;;;18.55;99.77
8075;BME280;4080;42.676;23.372;2023-04-23T07:55:12;95176.63;;;18.49;99.88
8075;BME280;4080;42.676;23.372;2023-04-23T07:57:41;95169.09;;;18.42;100.00
8075;BME280;4080;42.676;23.372;2023-04-23T08:00:08;95171.19;;;18.71;100.00
8075;BME280;4080;42.676;23.372;2023-04-23T08:02:36;95170.03;;;18.46;98.21
8075;BME280;4080;42.676;23.372;2023-04-23T08:05:03;95167.38;;;18.46;100.00
8075;BME280;4080;42.676;23.372;2023-04-23T08:07:31;95157.94;;;18.49;99.75
8075;BME280;4080;42.676;23.372;2023-04-23T08:09:58;95174.16;;;18.78;97.00
8075;BME280;4080;42.676;23.372;2023-04-23T08:12:28;95176.19;;;18.99;94.66
8075;BME280;4080;42.676;23.372;2023-04-23T08:14:56;95172.13;;;18.75;95.81
8075;BME280;4080;42.676;23.372;2023-04-23T08:17:23;95170.97;;;18.50;97.81
8075;BME280;4080;42.676;23.372;2023-04-23T08:19:50;95170.19;;;18.50;97.34
8075;BME280;4080;42.676;23.372;2023-04-23T08:22:17;95165.63;;;18.42;99.28
8075;BME280;4080;42.676;23.372;2023-04-23T08:24:44;95159.81;;;18.40;99.03
8075;BME280;4080;42.676;23.372;2023-04-23T08:27:10;95167.25;;;18.77;97.79
8075;BME280;4080;42.676;23.372;2023-04-23T08:29:37;95164.19;;;19.22;96.21
8075;BME280;4080;42.676;23.372;2023-04-23T08:32:05;95164.44;;;19.64;93.64
8075;BME280;4080;42.676;23.372;2023-04-23T08:34:32;95161.59;;;19.98;92.33
8075;BME280;4080;42.676;23.372;2023-04-23T08:36:58;95151.63;;;20.07;89.98
8075;BME280;4080;42.676;23.372;2023-04-23T08:39:25;95163.06;;;20.46;89.85
8075;BME280;4080;42.676;23.372;2023-04-23T08:41:54;95160.50;;;20.70;87.07
8075;BME280;4080;42.676;23.372;2023-04-23T08:44:22;95134.28;;;20.76;86.19
8075;BME280;4080;42.676;23.372;2023-04-23T08:46:50;95154.34;;;20.49;84.09
8075;BME280;4080;42.676;23.372;2023-04-23T08:49:19;95154.19;;;20.54;84.88
8075;BME280;4080;42.676;23.372;2023-04-23T08:51:48;95124.34;;;20.35;85.47
8075;BME280;4080;42.676;23.372;2023-04-23T08:54:20;95140.34;;;20.52;84.95
8075;BME280;4080;42.676;23.372;2023-04-23T08:56:48;95141.81;;;20.83;83.54
8075;BME280;4080;42.676;23.372;2023-04-23T08:59:17;95147.22;;;20.95;82.79
8075;BME280;4080;42.676;23.372;2023-04-23T09:01:45;95136.38;;;20.91;85.12
8075;BME280;4080;42.676;23.372;2023-04-23T09:04:12;95138.34;;;21.15;84.43
8075;BME280;4080;42.676;23.372;2023-04-23T09:06:42;95126.56;;;21.41;82.23
8075;BME280;4080;42.676;23.372;2023-04-23T09:09:10;95140.19;;;21.23;80.84
8075;BME280;4080;42.676;23.372;2023-04-23T09:11:38;95129.44;;;20.69;81.70
8075;BME280;4080;42.676;23.372;2023-04-23T09:14:05;95143.28;;;20.30;82.73
8075;BME280;4080;42.676;23.372;2023-04-23T09:16:32;95133.44;;;20.42;83.97
8075;BME280;4080;42.676;23.372;2023-04-23T09:18:58;95135.28;;;20.51;82.34
8075;BME280;4080;42.676;23.372;2023-04-23T09:21:25;95131.34;;;20.48;82.05
8075;BME280;4080;42.676;23.372;2023-04-23T09:23:53;95123.19;;;20.65;82.92
8075;BME280;4080;42.676;23.372;2023-04-23T09:26:21;95116.47;;;20.92;83.17
8075;BME280;4080;42.676;23.372;2023-04-23T09:28:48;95089.56;;;21.01;82.41
8075;BME280;4080;42.676;23.372;2023-04-23T09:31:19;95129.06;;;21.58;80.44
8075;BME280;4080;42.676;23.372;2023-04-23T09:33:50;95097.28;;;21.35;74.39
8075;BME280;4080;42.676;23.372;2023-04-23T09:36:20;95117.66;;;21.49;75.07
8075;BME280;4080;42.676;23.372;2023-04-23T09:38:48;95114.75;;;21.54;76.74
8075;BME280;4080;42.676;23.372;2023-04-23T09:41:27;95118.78;;;21.72;75.52
8075;BME280;4080;42.676;23.372;2023-04-23T09:43:55;95102.00;;;21.87;73.74
8075;BME280;4080;42.676;23.372;2023-04-23T09:46:32;95099.09;;;22.17;74.97
8075;BME280;4080;42.676;23.372;2023-04-23T09:49:01;95074.19;;;22.32;72.83
8075;BME280;4080;42.676;23.372;2023-04-23T09:51:28;95085.47;;;22.78;71.35
8075;BME280;4080;42.676;23.372;2023-04-23T09:53:56;95095.47;;;23.05;69.60
8075;BME280;4080;42.676;23.372;2023-04-23T09:56:24;95089.13;;;23.13;67.78
8075;BME280;4080;42.676;23.372;2023-04-23T09:58:51;95086.69;;;23.08;66.68
8075;BME280;4080;42.676;23.372;2023-04-23T10:01:26;95080.00;;;23.02;65.07
8075;BME280;4080;42.676;23.372;2023-04-23T10:03:54;95081.78;;;22.82;65.41
8075;BME280;4080;42.676;23.372;2023-04-23T10:06:26;95070.72;;;22.72;66.44
8075;BME280;4080;42.676;23.372;2023-04-23T10:08:54;95081.91;;;22.74;66.54
8075;BME280;4080;42.676;23.372;2023-04-23T10:11:22;95070.28;;;22.98;65.24
8075;BME280;4080;42.676;23.372;2023-04-23T10:13:52;95078.22;;;22.94;63.53
8075;BME280;4080;42.676;23.372;2023-04-23T10:16:20;95067.69;;;22.73;63.85
8075;BME280;4080;42.676;23.372;2023-04-23T10:18:48;95068.66;;;22.81;64.80
8075;BME280;4080;42.676;23.372;2023-04-23T10:21:16;95021.63;;;22.75;63.19
8075;BME280;4080;42.676;23.372;2023-04-23T10:23:46;95057.34;;;23.19;61.97
8075;BME280;4080;42.676;23.372;2023-04-23T10:26:15;95061.63;;;23.36;60.70
8075;BME280;4080;42.676;23.372;2023-04-23T10:28:46;95049.47;;;23.42;59.65
8075;BME280;4080;42.676;23.372;2023-04-23T10:31:14;95045.28;;;23.44;59.18
8075;BME280;4080;42.676;23.372;2023-04-23T10:33:44;95048.09;;;23.32;59.42
8075;BME280;4080;42.676;23.372;2023-04-23T10:36:16;95047.53;;;23.11;59.06
8075;BME280;4080;42.676;23.372;2023-04-23T10:38:43;95038.78;;;22.98;59.38
8075;BME280;4080;42.676;23.372;2023-04-23T10:41:11;95037.34;;;22.88;59.23
8075;BME280;4080;42.676;23.372;2023-04-23T10:43:41;95041.56;;;22.74;57.66
8075;BME280;4080;42.676;23.372;2023-04-23T10:46:30;95039.88;;;22.81;58.63
8075;BME280;4080;42.676;23.372;2023-04-23T10:49:05;95027.69;;;23.00;59.99
8075;BME280;4080;42.676;23.372;2023-04-23T10:51:32;95026.03;;;23.27;59.02
8075;BME280;4080;42.676;23.372;2023-04-23T10:54:01;95003.97;;;23.37;57.24
8075;BME280;4080;42.676;23.372;2023-04-23T10:56:29;95025.66;;;23.44;54.16
8075;BME280;4080;42.676;23.372;2023-04-23T10:58:56;95014.19;;;22.84;53.54
8075;BME280;4080;42.676;23.372;2023-04-23T11:01:24;95016.84;;;22.68;52.96
8075;BME280;4080;42.676;23.372;2023-04-23T11:03:53;95020.84;;;22.46;54.50
8075;BME280;4080;42.676;23.372;2023-04-23T11:06:55;95008.03;;;22.55;54.01
8075;BME280;4080;42.676;23.372;2023-04-23T11:09:28;95004.63;;;22.71;52.13
8075;BME280;4080;42.676;23.372;2023-04-23T11:11:55;95002.19;;;22.66;50.69
8075;BME280;4080;42.676;23.372;2023-04-23T11:14:33;94990.81;;;22.72;53.81
8075;BME280;4080;42.676;23.372;2023-04-23T11:17:00;94992.88;;;23.07;52.09
8075;BME280;4080;42.676;23.372;2023-04-23T11:19:28;94993.13;;;23.17;51.52
8075;BME280;4080;42.676;23.372;2023-04-23T11:22:00;94987.94;;;23.09;46.64
8075;BME280;4080;42.676;23.372;2023-04-23T11:24:28;94991.69;;;22.76;48.62
8075;BME280;4080;42.676;23.372;2023-04-23T11:26:56;94983.00;;;22.67;48.01
8075;BME280;4080;42.676;23.372;2023-04-23T11:29:25;94980.78;;;22.41;48.32
8075;BME280;4080;42.676;23.372;2023-04-23T11:31:53;94978.88;;;22.42;49.03
8075;BME280;4080;42.676;23.372;2023-04-23T11:34:21;94973.78;;;22.52;47.82
8075;BME280;4080;42.676;23.372;2023-04-23T11:36:51;94937.78;;;22.41;48.30
8075;BME280;4080;42.676;23.372;2023-04-23T11:39:18;94970.88;;;22.73;48.51
8075;BME280;4080;42.676;23.372;2023-04-23T11:41:45;94968.22;;;22.89;48.08
8075;BME280;4080;42.676;23.372;2023-04-23T11:44:12;94948.53;;;22.85;46.60
8075;BME280;4080;42.676;23.372;2023-04-23T11:46:39;94963.28;;;22.63;47.83
8075;BME280;4080;42.676;23.372;2023-04-23T11:49:05;94964.50;;;22.50;47.45
8075;BME280;4080;42.676;23.372;2023-04-23T11:51:34;94955.13;;;22.44;46.47
8075;BME280;4080;42.676;23.372;2023-04-23T11:54:07;94953.22;;;22.44;47.08
8075;BME280;4080;42.676;23.372;2023-04-23T11:56:35;94937.84;;;22.29;45.42
8075;BME280;4080;42.676;23.372;2023-04-23T11:59:02;94940.88;;;22.27;44.99
8075;BME280;4080;42.676;23.372;2023-04-23T12:01:42;94942.22;;;22.06;45.08
8075;BME280;4080;42.676;23.372;2023-04-23T12:04:13;94953.91;;;21.61;43.98
8075;BME280;4080;42.676;23.372;2023-04-23T12:06:41;94937.63;;;21.42;46.66
8075;BME280;4080;42.676;23.372;2023-04-23T12:09:10;94947.69;;;21.32;47.50
8075;BME280;4080;42.676;23.372;2023-04-23T12:11:38;94929.25;;;21.19;46.97
8075;BME280;4080;42.676;23.372;2023-04-23T12:14:06;94945.78;;;21.21;46.42
8075;BME280;4080;42.676;23.372;2023-04-23T12:16:36;94926.78;;;21.38;46.35
8075;BME280;4080;42.676;23.372;2023-04-23T12:19:03;94923.38;;;21.65;58.51
8075;BME280;4080;42.676;23.372;2023-04-23T12:21:30;94922.28;;;22.07;55.30
8075;BME280;4080;42.676;23.372;2023-04-23T12:23:57;94924.41;;;22.29;49.12
8075;BME280;4080;42.676;23.372;2023-04-23T12:26:25;94925.63;;;22.31;45.74
8075;BME280;4080;42.676;23.372;2023-04-23T12:28:55;94929.72;;;22.41;45.34
8075;BME280;4080;42.676;23.372;2023-04-23T12:31:24;94906.56;;;22.37;49.74
8075;BME280;4080;42.676;23.372;2023-04-23T12:34:01;94917.97;;;22.18;47.22
8075;BME280;4080;42.676;23.372;2023-04-23T12:36:29;94904.84;;;21.88;50.31
8075;BME280;4080;42.676;23.372;2023-04-23T12:39:21;94916.88;;;21.66;47.52
8075;BME280;4080;42.676;23.372;2023-04-23T12:41:51;94911.94;;;21.16;48.82
8075;BME280;4080;42.676;23.372;2023-04-23T12:44:18;94894.69;;;20.81;51.57
8075;BME280;4080;42.676;23.372;2023-04-23T12:46:48;94900.63;;;20.62;50.57
8075;BME280;4080;42.676;23.372;2023-04-23T12:49:15;94903.16;;;20.46;52.06
8075;BME280;4080;42.676;23.372;2023-04-23T12:51:42;94863.00;;;20.13;50.83
8075;BME280;4080;42.676;23.372;2023-04-23T12:54:10;94903.66;;;20.27;51.16
8075;BME280;4080;42.676;23.372;2023-04-23T12:56:37;94905.28;;;20.20;51.02
8075;BME280;4080;42.676;23.372;2023-04-23T12:59:05;94896.69;;;20.14;50.11
8075;BME280;4080;42.676;23.372;2023-04-23T13:01:32;94898.34;;;20.06;49.81
8075;BME280;4080;42.676;23.372;2023-04-23T13:03:58;94896.41;;;19.95;49.74
8075;BME280;4080;42.676;23.372;2023-04-23T13:06:25;94839.97;;;19.46;48.62
8075;BME280;4080;42.676;23.372;2023-04-23T13:08:53;94884.50;;;19.71;50.16
8075;BME280;4080;42.676;23.372;2023-04-23T13:11:21;94903.22;;;19.92;48.73